Skip Navigation LinksHome page > Weather > Current weather Skip Navigation Links

Current Weather

Ndjamena, Chad

For information only: do not use for flight planning or navigation.
Latest weather
Observation time Monday, December 5, 2016 9:00 AM WAT
Local time Monday, December 5, 2016 9:24 AM WAT
Flight conditions Marginal Visual Meteorological Conditions
Winds
Wind direction East-Northeast (60°)
Winds variable from 30° to 90°
Wind speed 15 mph
Visibility 3.7 mi.
Sky condition
Ceiling unlimited
Temperature 81°F
Dewpoint 45°F
Altimeter 29.94 in.Hg
Derived measurements
Relative humidity 28%
Heat index 81°F
Density altitude 1801 ft.
Remarks
No significant changes expected in the next two hours.
METAR FTTJ 050800Z 06013KT 030V090 6000 NSC 27/07 Q1014 NOSIG

Settings

Location code

InnerDrive.Weather 4.0.6144.1 Release CLR 4.0.30319.34209
Copyright ©2015 Inner Drive Technology. All rights reserved. Portions Copyright ©1986-2015 David Braverman.

Find weather

Site navigation


Skip Navigation Links

Place info

Page info

PayPal - The safer, easier way to pay online!

Return home.

Copyright ©2016 Inner Drive Technology. Purveyors of fine, hand-crafted computer software. Page printed 2016-12-05T08:24:06 UTC.